Tasman — ZDKI2 — position and weather

sailwx.info

Track history (hours):
 
Tides and Currents Weather Stations Pressure Air Temp Water Temp Dewpoint Dewpoint Depression Visibility Wind Speed Wind Dir Waves Ship Positions

Tasman

Last reported at 2014-Dec-19 17:15 UTC. Time now 2014-Dec-19 18:13 UTC.
Position N 51°43' W 002°29'.

Length 90 m; draft 4 m.

Type: Ship. MMSI: 23617000.

Date/timePositionNaut miles runAvg speedWind from/ knotsBaromVisibWave heightAir tempDewpointWater temp
2014-Dec-19 17:15N 51°43' W 002°29'0 0.0
2014-Dec-19 16:21N 51°43' W 002°29'0 0.0
2014-Dec-19 15:32N 51°43' W 002°29'0 0.0
2014-Dec-19 14:32N 51°43' W 002°29'0 0.0
2014-Dec-19 13:31N 51°43' W 002°29'0 0.0
2014-Dec-19 12:07N 51°43' W 002°29'0 0.0
2014-Dec-19 11:18N 51°43' W 002°29'0 0.0
2014-Dec-19 10:30N 51°43' W 002°29'0 0.0
2014-Dec-19 09:30N 51°43' W 002°29'0 0.0
2014-Dec-19 08:32N 51°43' W 002°29'0 0.0
2014-Dec-19 07:29N 51°43' W 002°29'0 0.2
2014-Dec-19 06:32N 51°43' W 002°29'0 0.0
2014-Dec-19 05:33N 51°43' W 002°29'0 0.3
2014-Dec-19 04:31N 51°43' W 002°29'8 8.7
2014-Dec-19 03:33N 51°37' W 002°39'1110.7
2014-Dec-19 02:33N 51°29' W 002°50'1311.8
2014-Dec-19 01:26N 51°22' W 003°08'8 8.9
2014-Dec-19 00:33N 51°18' W 003°19'  
2014-Dec-15 15:08N 50°44' W 005°28'  
2014-Dec-12 09:33N 39°08' W 009°51'1211.1
2014-Dec-12 08:28N 38°56' W 009°51'1011.0
2014-Dec-12 07:33N 38°46' W 009°51'1211.1
2014-Dec-12 06:30N 38°35' W 009°50'1111.1
2014-Dec-12 05:30N 38°23' W 009°48'2211.1
2014-Dec-12 03:33N 38°03' W 009°41'1111.2
2014-Dec-12 02:32N 37°52' W 009°38'1111.3
2014-Dec-12 01:33N 37°41' W 009°34'1111.0
2014-Dec-12 00:33N 37°30' W 009°30'1111.0
2014-Dec-11 23:32N 37°19' W 009°27'1511.0
2014-Dec-11 22:10N 37°05' W 009°22'1810.4
2014-Dec-11 20:25N 36°48' W 009°13'5811.3
2014-Dec-11 15:17N 36°30' W 008°04'13211.0
2014-Dec-11 03:18N 36°00' W 005°25'810.6
2014-Dec-11 02:33N 36°03' W 005°16'  
Track history (hours):
 
Tides and Currents Weather Stations Pressure Air Temp Water Temp Dewpoint Dewpoint Depression Visibility Wind Speed Wind Dir Waves Ship Positions

Tasman

Last reported at 2014-Dec-19 17:15 UTC. Time now 2014-Dec-19 18:13 UTC.
Position N 51°43' W 002°29'.

Length 90 m; draft 4 m.

Type: Ship. MMSI: 23617000.

Date/timePositionNaut miles runAvg speedWind from/ knotsBaromVisibWave heightAir tempDewpointWater temp
2014-Dec-19 17:15N 51°43' W 002°29'0 0.0
2014-Dec-19 16:21N 51°43' W 002°29'0 0.0
2014-Dec-19 15:32N 51°43' W 002°29'0 0.0
2014-Dec-19 14:32N 51°43' W 002°29'0 0.0
2014-Dec-19 13:31N 51°43' W 002°29'0 0.0
2014-Dec-19 12:07N 51°43' W 002°29'0 0.0
2014-Dec-19 11:18N 51°43' W 002°29'0 0.0
2014-Dec-19 10:30N 51°43' W 002°29'0 0.0
2014-Dec-19 09:30N 51°43' W 002°29'0 0.0
2014-Dec-19 08:32N 51°43' W 002°29'0 0.0
2014-Dec-19 07:29N 51°43' W 002°29'0 0.2
2014-Dec-19 06:32N 51°43' W 002°29'0 0.0
2014-Dec-19 05:33N 51°43' W 002°29'0 0.3
2014-Dec-19 04:31N 51°43' W 002°29'8 8.7
2014-Dec-19 03:33N 51°37' W 002°39'1110.7
2014-Dec-19 02:33N 51°29' W 002°50'1311.8
2014-Dec-19 01:26N 51°22' W 003°08'8 8.9
2014-Dec-19 00:33N 51°18' W 003°19'  
2014-Dec-15 15:08N 50°44' W 005°28'  
2014-Dec-12 09:33N 39°08' W 009°51'1211.1
2014-Dec-12 08:28N 38°56' W 009°51'1011.0
2014-Dec-12 07:33N 38°46' W 009°51'1211.1
2014-Dec-12 06:30N 38°35' W 009°50'1111.1
2014-Dec-12 05:30N 38°23' W 009°48'2211.1
2014-Dec-12 03:33N 38°03' W 009°41'1111.2
2014-Dec-12 02:32N 37°52' W 009°38'1111.3
2014-Dec-12 01:33N 37°41' W 009°34'1111.0
2014-Dec-12 00:33N 37°30' W 009°30'1111.0
2014-Dec-11 23:32N 37°19' W 009°27'1511.0
2014-Dec-11 22:10N 37°05' W 009°22'1810.4
2014-Dec-11 20:25N 36°48' W 009°13'5811.3
2014-Dec-11 15:17N 36°30' W 008°04'13211.0
2014-Dec-11 03:18N 36°00' W 005°25'810.6
2014-Dec-11 02:33N 36°03' W 005°16'  

Dump ship's entire track history